Time;durP1;ratioP1;P1;durP2;ratioP2;P2;SDS_P1;SDS_P2;PMS_P1;PMS_P2;Temp;Humidity;BMP_temperature;BMP_pressure;BME280_temperature;BME280_humidity;BME280_pressure;Samples;Min_cycle;Max_cycle;Signal;HPM_P1;HPM_P2
2023/04/21 04:52:36;;;;;;;21.52;8.27;;;14.20;66.80;;;;;;4928757;23;20486;-74
2023/04/21 04:55:03;;;;;;;20.63;8.80;;;14.30;66.70;;;;;;4918754;29;20048;-75
2023/04/21 04:57:30;;;;;;;27.02;8.00;;;14.40;67.00;;;;;;4918676;29;20052;-77
2023/04/21 04:59:55;;;;;;;26.70;8.63;;;14.40;67.40;;;;;;4937730;29;20039;-77
2023/04/21 05:02:22;;;;;;;30.33;8.18;;;14.50;67.60;;;;;;4938113;29;20067;-76
2023/04/21 05:04:49;;;;;;;32.20;8.95;;;14.50;68.00;;;;;;4921544;29;20060;-73
2023/04/21 05:07:15;;;;;;;39.20;9.30;;;14.50;68.20;;;;;;4934945;29;20051;-77
2023/04/21 05:09:40;;;;;;;36.78;8.68;;;14.60;68.90;;;;;;4937267;29;20048;-79
2023/04/21 05:12:06;;;;;;;44.15;9.23;;;14.60;69.20;;;;;;4937497;29;20047;-77
2023/04/21 05:14:32;;;;;;;40.58;9.23;;;14.70;69.40;;;;;;4937777;29;20062;-75
2023/04/21 05:16:58;;;;;;;32.67;7.95;;;14.70;69.50;;;;;;4937485;29;20055;-74
2023/04/21 05:19:24;;;;;;;33.42;7.57;;;14.70;69.70;;;;;;4919133;29;20458;-76
2023/04/21 05:21:51;;;;;;;30.13;7.28;;;14.80;69.90;;;;;;4927366;29;20411;-76
2023/04/21 05:24:23;;;;;;;34.00;7.78;;;14.80;70.00;;;;;;4937758;29;20048;-80
2023/04/21 05:26:49;;;;;;;28.33;7.45;;;14.90;70.30;;;;;;4937586;29;20051;-76
2023/04/21 05:29:14;;;;;;;26.00;6.50;;;14.90;70.50;;;;;;4937201;29;20047;-77
2023/04/21 05:31:40;;;;;;;24.73;6.28;;;14.90;70.70;;;;;;4937863;29;20134;-77
2023/04/21 05:34:06;;;;;;;30.95;7.00;;;15.00;70.70;;;;;;4936856;29;20039;-75
2023/04/21 05:36:31;;;;;;;35.75;7.97;;;15.00;70.80;;;;;;4938007;29;20134;-75
2023/04/21 05:38:57;;;;;;;48.00;8.90;;;15.20;70.60;;;;;;4938330;29;20567;-76
2023/04/21 05:41:23;;;;;;;35.85;7.90;;;15.30;70.70;;;;;;4936785;29;20066;-74
2023/04/21 05:43:49;;;;;;;43.35;8.13;;;15.30;70.30;;;;;;4937456;29;20055;-75
2023/04/21 05:46:15;;;;;;;39.58;7.55;;;15.40;70.30;;;;;;4921331;29;20044;-76
2023/04/21 05:48:40;;;;;;;45.00;8.35;;;15.50;70.10;;;;;;4936743;29;20058;-74
2023/04/21 05:51:16;;;;;;;29.13;7.40;;;15.50;69.70;;;;;;4937302;29;20151;-77
2023/04/21 05:53:43;;;;;;;27.38;8.02;;;15.60;69.60;;;;;;4937622;29;20147;-75
2023/04/21 05:56:09;;;;;;;26.60;7.00;;;15.60;69.40;;;;;;4937419;29;20067;-75
2023/04/21 05:58:36;;;;;;;38.53;7.82;;;15.70;69.40;;;;;;4937416;29;20118;-74
2023/04/21 06:01:01;;;;;;;59.13;8.43;;;15.70;69.20;;;;;;4936903;29;20047;-75
2023/04/21 06:03:30;;;;;;;38.58;7.22;;;15.80;69.40;;;;;;4937397;29;20057;-74
2023/04/21 06:05:56;;;;;;;46.67;8.65;;;15.70;69.50;;;;;;4937648;29;20052;-75
2023/04/21 06:08:23;;;;;;;33.50;7.45;;;15.80;69.50;;;;;;4937541;29;20047;-74
2023/04/21 06:10:48;;;;;;;45.05;8.57;;;15.80;69.00;;;;;;4937425;29;20122;-76
2023/04/21 06:13:14;;;;;;;41.50;8.07;;;15.80;68.90;;;;;;4937241;29;20403;-73
2023/04/21 06:15:40;;;;;;;46.03;9.05;;;15.80;68.80;;;;;;4939699;29;20406;-76
2023/04/21 06:18:06;;;;;;;36.45;8.38;;;15.80;68.40;;;;;;4940823;29;20062;-75
2023/04/21 06:20:31;;;;;;;29.58;7.00;;;15.80;68.30;;;;;;4940635;29;20047;-77
2023/04/21 06:22:57;;;;;;;36.75;7.50;;;15.70;68.20;;;;;;4940776;29;20048;-77
2023/04/21 06:25:23;;;;;;;31.85;6.47;;;15.70;68.10;;;;;;4940534;29;20070;-76
2023/04/21 06:27:48;;;;;;;25.88;6.85;;;15.70;68.10;;;;;;4940712;29;20059;-76
2023/04/21 06:30:14;;;;;;;27.23;6.32;;;15.70;68.00;;;;;;4939961;29;20066;-76
2023/04/21 06:32:40;;;;;;;22.75;6.53;;;15.70;67.90;;;;;;4940290;29;20035;-72
2023/04/21 06:35:06;;;;;;;28.42;6.47;;;15.70;67.90;;;;;;4940417;29;20426;-74
2023/04/21 06:37:32;;;;;;;23.48;7.15;;;15.70;67.70;;;;;;4940178;29;20039;-74
2023/04/21 06:39:57;;;;;;;22.25;6.45;;;15.70;67.60;;;;;;4940323;29;20438;-76
2023/04/21 06:42:23;;;;;;;19.23;6.15;;;15.80;66.80;;;;;;4939748;29;20364;-77
2023/04/21 06:44:49;;;;;;;18.63;6.25;;;15.60;64.90;;;;;;4940153;29;20055;-77
2023/04/21 06:47:15;;;;;;;18.92;8.35;;;15.60;65.00;;;;;;4940561;29;20055;-78
2023/04/21 06:49:41;;;;;;;13.40;7.32;;;15.60;64.50;;;;;;4939850;29;20047;-80
2023/04/21 06:52:07;;;;;;;18.35;7.60;;;15.60;63.90;;;;;;4939931;29;20071;-76
2023/04/21 06:54:33;;;;;;;15.85;7.38;;;15.50;64.00;;;;;;4939890;29;20059;-75
2023/04/21 06:56:59;;;;;;;15.45;8.90;;;15.50;64.00;;;;;;4940532;29;20059;-80
2023/04/21 06:59:24;;;;;;;15.02;8.07;;;15.50;63.80;;;;;;4939802;29;20195;-79
2023/04/21 07:01:53;;;;;;;15.07;8.18;;;15.40;64.40;;;;;;4940676;29;20054;-78
2023/04/21 07:04:18;;;;;;;14.50;7.07;;;15.50;63.90;;;;;;4939992;29;20468;-77
2023/04/21 07:06:44;;;;;;;20.33;7.22;;;15.40;64.50;;;;;;4940135;29;20126;-78
2023/04/21 07:09:10;;;;;;;14.25;7.32;;;15.40;64.10;;;;;;4922907;29;20061;-78
2023/04/21 07:11:36;;;;;;;18.58;6.68;;;15.40;64.30;;;;;;4922790;29;20479;-77
2023/04/21 07:14:02;;;;;;;28.27;7.80;;;15.30;64.40;;;;;;4939673;29;20106;-77
2023/04/21 07:16:28;;;;;;;17.52;7.10;;;15.30;64.80;;;;;;4921111;29;20044;-73
2023/04/21 07:18:54;;;;;;;16.58;7.28;;;15.40;65.30;;;;;;4939452;29;20051;-77
2023/04/21 07:21:20;;;;;;;16.35;7.05;;;15.40;65.90;;;;;;4939747;29;20039;-78
2023/04/21 07:23:46;;;;;;;14.32;6.65;;;15.40;65.20;;;;;;4939913;29;20210;-79
2023/04/21 07:26:11;;;;;;;13.00;7.00;;;15.40;65.20;;;;;;4939305;29;20047;-78
2023/04/21 07:28:39;;;;;;;12.55;5.57;;;15.40;65.30;;;;;;4939022;29;20044;-79
2023/04/21 07:31:05;;;;;;;11.90;6.10;;;15.40;65.40;;;;;;4922657;29;20062;-79
2023/04/21 07:33:31;;;;;;;14.25;6.35;;;15.40;65.50;;;;;;4922822;29;20106;-78
2023/04/21 07:35:57;;;;;;;12.13;6.00;;;15.40;65.60;;;;;;4939229;29;20103;-77
2023/04/21 07:38:23;;;;;;;14.25;6.03;;;15.40;65.70;;;;;;4938546;29;20118;-78
2023/04/21 07:40:49;;;;;;;9.07;5.78;;;15.30;65.90;;;;;;4939425;29;20074;-80
2023/04/21 07:43:15;;;;;;;11.63;5.53;;;15.30;66.10;;;;;;4913107;29;20052;-79
2023/04/21 07:45:41;;;;;;;12.02;6.30;;;15.40;66.10;;;;;;4920461;29;20063;-79
2023/04/21 07:48:07;;;;;;;12.02;6.72;;;15.40;66.10;;;;;;4904143;29;20455;-80
2023/04/21 07:50:35;;;;;;;10.90;7.25;;;15.40;66.00;;;;;;4938211;29;20447;-80
2023/04/21 07:53:01;;;;;;;11.30;7.07;;;15.40;65.80;;;;;;4921577;29;20093;-78
2023/04/21 07:55:28;;;;;;;14.75;8.43;;;15.40;65.70;;;;;;4938207;29;20123;-79
2023/04/21 07:57:54;;;;;;;12.65;7.90;;;15.40;66.00;;;;;;4938952;29;20134;-81
2023/04/21 08:00:20;;;;;;;14.77;8.90;;;15.50;66.60;;;;;;4937073;29;20135;-78
2023/04/21 08:02:45;;;;;;;10.52;8.00;;;15.50;66.70;;;;;;4939226;29;20075;-79
2023/04/21 08:05:11;;;;;;;13.90;9.00;;;15.50;66.60;;;;;;4922049;29;20521;-78
2023/04/21 08:07:38;;;;;;;11.98;7.40;;;15.60;66.30;;;;;;4939341;29;20053;-77
2023/04/21 08:10:05;;;;;;;10.18;7.40;;;15.60;65.70;;;;;;4935062;29;20091;-78
2023/04/21 08:12:31;;;;;;;14.93;8.10;;;15.60;65.30;;;;;;4924938;29;20082;-78
2023/04/21 08:14:56;;;;;;;9.13;6.55;;;15.60;65.70;;;;;;4921785;29;20074;-81
2023/04/21 08:17:22;;;;;;;10.07;6.60;;;15.60;65.90;;;;;;4938685;29;20474;-77
2023/04/21 08:19:48;;;;;;;9.88;6.43;;;15.60;65.90;;;;;;4938792;29;20035;-79
2023/04/21 08:22:17;;;;;;;11.23;6.60;;;15.70;65.90;;;;;;4921813;29;20052;-81
2023/04/21 08:24:42;;;;;;;10.02;6.47;;;15.70;66.00;;;;;;4906427;29;20043;-80
2023/04/21 08:27:08;;;;;;;10.45;5.97;;;15.70;66.10;;;;;;4921339;29;20348;-80
2023/04/21 08:29:34;;;;;;;10.07;5.95;;;15.70;66.20;;;;;;4921618;29;20032;-79
2023/04/21 08:32:22;;;;;;;9.68;6.03;;;15.70;66.00;;;;;;4938362;29;20083;-78
2023/04/21 08:34:50;;;;;;;9.38;5.97;;;15.80;65.80;;;;;;4921573;29;20319;-79
2023/04/21 08:37:22;;;;;;;8.30;5.78;;;15.80;65.80;;;;;;4921179;29;20040;-81
2023/04/21 08:40:06;;;;;;;8.90;6.38;;;15.80;65.90;;;;;;4923921;29;20126;-79
2023/04/21 08:42:32;;;;;;;10.05;5.70;;;15.80;66.00;;;;;;4921638;29;20050;-78
2023/04/21 08:44:58;;;;;;;10.38;5.95;;;15.80;65.60;;;;;;4937731;29;20039;-78
2023/04/21 08:47:24;;;;;;;8.23;5.65;;;15.90;65.80;;;;;;4929373;29;20050;-75
2023/04/21 08:49:51;;;;;;;7.68;4.85;;;15.90;65.70;;;;;;4938273;29;20054;-78
2023/04/21 08:52:17;;;;;;;7.95;5.00;;;15.90;66.20;;;;;;4938184;29;20059;-77
2023/04/21 08:54:43;;;;;;;7.60;5.55;;;15.90;65.60;;;;;;4938040;29;20056;-79
2023/04/21 08:57:09;;;;;;;6.13;4.80;;;16.00;65.60;;;;;;4905355;29;20048;-79
2023/04/21 08:59:37;;;;;;;10.90;5.68;;;16.00;65.60;;;;;;4937906;29;20050;-80
2023/04/21 09:02:13;;;;;;;8.63;4.53;;;16.10;65.40;;;;;;4922061;29;20043;-80
2023/04/21 09:04:54;;;;;;;9.27;5.10;;;16.00;65.40;;;;;;4886904;29;20119;-80
2023/04/21 09:07:32;;;;;;;7.32;4.43;;;16.00;65.40;;;;;;4910375;29;20048;-80
2023/04/21 09:10:02;;;;;;;9.52;5.13;;;16.00;65.10;;;;;;4920900;29;20044;-78
2023/04/21 09:12:28;;;;;;;9.15;5.85;;;16.00;65.00;;;;;;4936574;29;20051;-79
2023/04/21 09:14:56;;;;;;;9.95;6.22;;;16.00;64.90;;;;;;4919305;29;20059;-79
2023/04/21 09:17:30;;;;;;;13.00;6.28;;;16.00;64.90;;;;;;4920755;29;20490;-82
2023/04/21 09:19:57;;;;;;;11.57;6.13;;;15.90;65.00;;;;;;4933691;29;20053;-78
2023/04/21 09:22:28;;;;;;;14.55;6.40;;;16.00;65.30;;;;;;4918380;29;20055;-79
2023/04/21 09:24:58;;;;;;;10.88;5.82;;;15.90;65.30;;;;;;4918699;29;20048;-82
2023/04/21 09:27:24;;;;;;;11.68;5.85;;;16.00;65.30;;;;;;4917689;29;20072;-79
2023/04/21 09:29:50;;;;;;;10.02;5.68;;;15.90;65.30;;;;;;4902393;29;20044;-79
2023/04/21 09:32:18;;;;;;;9.05;5.57;;;15.90;65.30;;;;;;4918563;29;20044;-79
2023/04/21 09:34:44;;;;;;;9.63;5.93;;;15.90;65.30;;;;;;4918112;29;20355;-79
2023/04/21 09:37:12;;;;;;;9.80;4.93;;;15.90;65.30;;;;;;4902074;29;20067;-78
2023/04/21 09:39:37;;;;;;;9.27;5.35;;;15.80;65.30;;;;;;4901886;29;20059;-79
2023/04/21 09:42:03;;;;;;;9.45;4.85;;;15.90;65.50;;;;;;4902037;29;20044;-80
2023/04/21 09:44:29;;;;;;;10.93;4.85;;;15.80;65.50;;;;;;4902044;29;20090;-80
2023/04/21 09:47:03;;;;;;;6.68;4.55;;;15.80;65.60;;;;;;4917454;29;20047;-80
2023/04/21 09:49:34;;;;;;;9.93;5.10;;;15.80;65.70;;;;;;4903500;29;20044;-78
2023/04/21 09:52:01;;;;;;;7.43;5.03;;;15.80;65.70;;;;;;4905075;29;20068;-79
2023/04/21 09:54:32;;;;;;;8.43;4.63;;;15.80;65.70;;;;;;4905308;29;20065;-83
2023/04/21 09:57:03;;;;;;;8.82;4.53;;;15.80;65.70;;;;;;4905362;29;20482;-81
2023/04/21 09:59:34;;;;;;;11.07;4.78;;;15.80;65.70;;;;;;4905235;29;20467;-81
2023/04/21 10:02:03;;;;;;;7.70;4.65;;;15.80;65.80;;;;;;4921773;29;20032;-80
2023/04/21 10:04:31;;;;;;;6.47;4.90;;;15.80;65.80;;;;;;4905170;29;20107;-82
2023/04/21 10:06:58;;;;;;;7.40;4.22;;;15.80;65.80;;;;;;4920814;29;20366;-80
2023/04/21 10:09:30;;;;;;;9.40;4.35;;;15.80;66.00;;;;;;4905114;29;20076;-81
2023/04/21 10:11:56;;;;;;;6.95;4.25;;;15.80;65.90;;;;;;4921617;29;20403;-79
2023/04/21 10:14:24;;;;;;;7.78;4.13;;;15.80;65.90;;;;;;4905002;29;20123;-82
2023/04/21 10:17:02;;;;;;;8.55;4.60;;;15.80;66.00;;;;;;4904701;29;20586;-81
2023/04/21 10:19:30;;;;;;;6.55;4.20;;;15.80;66.00;;;;;;4905350;29;20044;-82
2023/04/21 10:21:56;;;;;;;9.23;4.03;;;15.80;66.00;;;;;;4905000;29;20096;-80
2023/04/21 10:24:22;;;;;;;7.55;4.60;;;15.80;66.00;;;;;;4920618;29;20047;-83
2023/04/21 10:26:50;;;;;;;6.13;3.72;;;15.80;66.10;;;;;;4904994;29;20048;-81
2023/04/21 10:29:26;;;;;;;7.65;4.10;;;15.80;66.20;;;;;;4904601;29;20040;-81
2023/04/21 10:31:53;;;;;;;7.35;4.35;;;15.80;66.10;;;;;;4904365;29;20056;-81
2023/04/21 10:34:21;;;;;;;5.40;4.07;;;15.80;66.20;;;;;;4923767;29;20043;-82
2023/04/21 10:36:53;;;;;;;5.70;4.20;;;15.80;66.20;;;;;;4923325;29;20043;-82
2023/04/21 10:39:43;;;;;;;5.88;3.95;;;15.80;66.40;;;;;;4923479;29;20074;-82
2023/04/21 10:42:12;;;;;;;6.55;3.75;;;15.80;66.60;;;;;;4940205;29;20111;-80
2023/04/21 10:44:57;;;;;;;5.53;3.67;;;15.80;66.50;;;;;;4939257;29;20047;-80
2023/04/21 10:47:35;;;;;;;5.97;4.00;;;15.80;66.50;;;;;;4922206;29;20101;-81
2023/04/21 10:50:11;;;;;;;7.47;4.28;;;15.80;66.60;;;;;;4922382;29;20394;-79
2023/04/21 10:52:51;;;;;;;7.05;4.43;;;15.80;66.80;;;;;;4908506;29;20055;-79
2023/04/21 10:55:17;;;;;;;10.13;4.43;;;15.80;66.80;;;;;;4923208;29;20348;-79
2023/04/21 10:57:44;;;;;;;7.57;4.60;;;15.80;66.70;;;;;;4907136;29;20050;-80
2023/04/21 11:00:14;;;;;;;8.90;4.63;;;15.80;66.70;;;;;;4922786;29;20138;-80
2023/04/21 11:02:41;;;;;;;8.45;5.05;;;15.80;66.80;;;;;;4933231;29;20054;-81
2023/04/21 11:05:08;;;;;;;6.40;4.40;;;15.80;66.80;;;;;;4921274;29;20054;-81
2023/04/21 11:07:34;;;;;;;6.80;4.20;;;15.80;67.60;;;;;;4919560;29;20139;-79
2023/04/21 11:10:03;;;;;;;10.55;6.18;;;15.80;67.00;;;;;;4920982;29;20122;-79
2023/04/21 11:12:31;;;;;;;10.07;5.50;;;15.80;67.10;;;;;;4904253;29;20119;-79
2023/04/21 11:14:57;;;;;;;9.63;5.65;;;15.80;67.10;;;;;;4888988;29;20451;-81
2023/04/21 11:17:24;;;;;;;7.47;5.70;;;15.80;67.20;;;;;;4903847;29;20099;-82
2023/04/21 11:19:54;;;;;;;7.07;5.25;;;15.80;67.10;;;;;;4920802;29;20052;-80
2023/04/21 11:22:25;;;;;;;9.95;5.50;;;15.80;67.20;;;;;;4919711;29;20086;-81
2023/04/21 11:24:56;;;;;;;11.48;6.82;;;15.80;67.00;;;;;;4919926;29;20451;-81
2023/04/21 11:27:24;;;;;;;13.50;6.35;;;15.80;67.00;;;;;;4926908;29;20048;-81
2023/04/21 11:29:50;;;;;;;9.73;5.60;;;15.80;67.00;;;;;;4938203;29;20047;-79
2023/04/21 11:32:17;;;;;;;10.77;6.07;;;15.80;67.00;;;;;;4939329;29;20043;-81
2023/04/21 11:34:43;;;;;;;10.93;5.95;;;15.80;67.10;;;;;;4939270;29;20048;-80
2023/04/21 11:37:13;;;;;;;13.38;5.82;;;15.80;67.20;;;;;;4939336;29;20044;-82
2023/04/21 11:39:42;;;;;;;12.07;5.40;;;15.80;67.20;;;;;;4939826;29;20158;-78
2023/04/21 11:42:10;;;;;;;12.98;5.63;;;15.80;67.30;;;;;;4939864;29;20040;-75
2023/04/21 11:44:40;;;;;;;10.43;5.63;;;15.80;68.00;;;;;;4938771;29;20048;-79
2023/04/21 11:47:14;;;;;;;9.55;4.88;;;15.80;67.50;;;;;;4938892;29;20039;-78
2023/04/21 11:49:51;;;;;;;14.48;5.60;;;15.80;67.60;;;;;;4939407;29;20059;-79
2023/04/21 11:52:28;;;;;;;11.77;5.93;;;15.80;67.60;;;;;;4938326;29;20059;-79
2023/04/21 11:54:59;;;;;;;8.63;5.45;;;15.80;67.70;;;;;;4936122;29;20079;-79
2023/04/21 11:57:26;;;;;;;15.68;5.93;;;15.80;67.70;;;;;;4938267;29;20044;-78
2023/04/21 11:59:52;;;;;;;7.28;5.40;;;15.80;67.70;;;;;;4938296;29;20048;-78
2023/04/21 12:02:24;;;;;;;13.38;5.35;;;15.80;67.70;;;;;;4922065;29;20060;-79
2023/04/21 12:05:01;;;;;;;11.70;5.18;;;15.80;67.60;;;;;;4922182;29;20366;-77
2023/04/21 12:07:31;;;;;;;12.25;6.03;;;15.80;67.60;;;;;;4938906;29;20051;-79
2023/04/21 12:09:57;;;;;;;9.20;4.78;;;15.80;67.50;;;;;;4938401;29;20087;-79
2023/04/21 12:12:24;;;;;;;9.00;4.75;;;15.80;67.50;;;;;;4921145;29;20047;-78
2023/04/21 12:14:50;;;;;;;11.35;4.90;;;15.80;67.50;;;;;;4938192;29;20043;-78
2023/04/21 12:17:16;;;;;;;7.15;5.18;;;15.80;67.50;;;;;;4938292;29;20516;-77
2023/04/21 12:19:42;;;;;;;13.90;4.53;;;15.80;67.50;;;;;;4938199;29;20046;-78
2023/04/21 12:22:12;;;;;;;9.40;4.30;;;15.80;67.50;;;;;;4938376;29;20055;-79
2023/04/21 12:24:38;;;;;;;11.70;4.85;;;15.80;67.50;;;;;;4922051;29;20047;-77
2023/04/21 12:27:05;;;;;;;8.15;4.45;;;15.80;67.50;;;;;;4921334;29;20059;-77
2023/04/21 12:29:31;;;;;;;8.77;4.82;;;15.80;67.50;;;;;;4938400;29;20051;-77
2023/04/21 12:31:56;;;;;;;12.10;4.85;;;15.90;67.60;;;;;;4938506;29;20113;-78
2023/04/21 12:34:22;;;;;;;8.55;5.07;;;15.80;67.70;;;;;;4938563;29;20055;-76
2023/04/21 12:36:48;;;;;;;14.50;6.07;;;15.80;67.70;;;;;;4921633;29;20035;-75
2023/04/21 12:39:16;;;;;;;10.13;5.38;;;15.90;67.90;;;;;;4919233;29;20052;-76
2023/04/21 12:41:41;;;;;;;10.60;5.38;;;15.90;67.70;;;;;;4919390;29;20155;-80
2023/04/21 12:44:07;;;;;;;18.25;6.60;;;15.80;67.80;;;;;;4919352;29;20092;-77
2023/04/21 12:46:33;;;;;;;16.77;6.40;;;15.90;67.90;;;;;;4919307;29;20052;-77
2023/04/21 12:48:59;;;;;;;19.40;5.97;;;15.90;68.00;;;;;;4934881;29;20434;-75
2023/04/21 12:51:25;;;;;;;14.73;6.32;;;15.90;67.80;;;;;;4938216;29;20134;-76
2023/04/21 12:53:51;;;;;;;13.82;5.60;;;15.90;67.60;;;;;;4937967;29;20418;-76
2023/04/21 12:56:17;;;;;;;9.48;4.97;;;15.90;67.60;;;;;;4934996;29;20048;-81
2023/04/21 12:58:43;;;;;;;11.52;5.28;;;15.90;67.50;;;;;;4925485;29;20051;-78
2023/04/21 13:01:10;;;;;;;17.85;6.65;;;15.90;67.30;;;;;;4922255;29;20058;-76
2023/04/21 13:03:36;;;;;;;15.93;6.55;;;15.90;67.20;;;;;;4931640;29;20119;-77
2023/04/21 13:06:02;;;;;;;19.80;6.20;;;15.90;67.20;;;;;;4936127;29;20367;-77
2023/04/21 13:08:28;;;;;;;23.80;6.70;;;15.90;67.20;;;;;;4937214;29;20083;-77
2023/04/21 13:10:53;;;;;;;19.35;6.53;;;15.90;67.00;;;;;;4937553;29;20055;-77
2023/04/21 13:13:19;;;;;;;26.35;7.10;;;15.90;67.00;;;;;;4937731;29;20054;-82
2023/04/21 13:15:45;;;;;;;20.65;7.38;;;15.90;66.80;;;;;;4936933;29;20370;-76
2023/04/21 13:18:11;;;;;;;33.08;6.65;;;15.90;66.70;;;;;;4936984;29;20055;-75
2023/04/21 13:20:37;;;;;;;13.02;5.90;;;15.90;66.70;;;;;;4937488;29;20075;-77
2023/04/21 13:23:02;;;;;;;18.30;5.35;;;15.90;66.80;;;;;;4937502;29;20128;-77
2023/04/21 13:25:28;;;;;;;16.90;5.45;;;15.90;66.90;;;;;;4939553;29;20048;-77
2023/04/21 13:27:54;;;;;;;18.75;6.07;;;15.90;66.90;;;;;;4941939;29;20083;-77
2023/04/21 13:30:19;;;;;;;21.98;7.20;;;15.90;67.00;;;;;;4941478;29;20054;-77
2023/04/21 13:32:45;;;;;;;11.05;5.43;;;16.00;67.00;;;;;;4940426;29;20054;-76
2023/04/21 13:35:11;;;;;;;13.70;5.88;;;15.90;67.00;;;;;;4941027;29;20043;-76
2023/04/21 13:37:38;;;;;;;15.23;5.30;;;16.00;67.00;;;;;;4925231;29;20120;-76
2023/04/21 13:40:05;;;;;;;15.65;5.07;;;16.00;67.10;;;;;;4941653;29;20450;-75
2023/04/21 13:42:32;;;;;;;14.50;4.88;;;16.00;67.10;;;;;;4941714;29;20059;-76
2023/04/21 13:45:01;;;;;;;18.40;5.93;;;16.00;67.10;;;;;;4924384;29;20055;-77
2023/04/21 13:47:27;;;;;;;13.20;4.82;;;16.00;67.10;;;;;;4941649;29;20058;-76
2023/04/21 13:49:53;;;;;;;11.20;4.90;;;16.00;67.10;;;;;;4941271;29;20073;-76
2023/04/21 13:52:19;;;;;;;11.55;4.90;;;16.00;67.00;;;;;;4940968;29;20071;-75
2023/04/21 13:54:44;;;;;;;12.63;5.47;;;15.90;67.00;;;;;;4924437;29;20103;-75
2023/04/21 13:57:10;;;;;;;13.30;5.38;;;16.00;67.00;;;;;;4924579;29;20058;-76
2023/04/21 13:59:36;;;;;;;10.70;4.55;;;16.00;67.00;;;;;;4941462;29;20102;-76
2023/04/21 14:02:01;;;;;;;10.20;5.30;;;16.00;67.00;;;;;;4941875;29;20135;-76
2023/04/21 14:04:27;;;;;;;12.10;5.05;;;16.00;67.00;;;;;;4941000;29;20445;-74
2023/04/21 14:06:54;;;;;;;11.52;4.80;;;16.00;66.90;;;;;;4940775;29;20516;-74
2023/04/21 14:09:19;;;;;;;11.15;4.22;;;16.00;66.90;;;;;;4940790;29;20044;-76
2023/04/21 14:11:46;;;;;;;9.85;4.57;;;16.00;66.90;;;;;;4940220;29;20468;-77
2023/04/21 14:14:11;;;;;;;7.90;3.75;;;16.00;66.80;;;;;;4940575;29;20047;-78
2023/04/21 14:16:37;;;;;;;10.00;4.53;;;16.00;66.80;;;;;;4941288;29;20070;-76
2023/04/21 14:19:03;;;;;;;10.10;4.57;;;16.00;67.40;;;;;;4940431;29;20118;-73
2023/04/21 14:21:29;;;;;;;13.15;4.75;;;16.00;66.60;;;;;;4940366;29;20051;-74
2023/04/21 14:23:55;;;;;;;11.77;4.20;;;16.00;66.40;;;;;;4940605;29;20374;-75
2023/04/21 14:26:21;;;;;;;16.23;4.72;;;16.00;66.50;;;;;;4940605;29;20047;-73
2023/04/21 14:28:47;;;;;;;12.45;5.25;;;16.00;66.70;;;;;;4940292;29;20055;-72
2023/04/21 14:31:13;;;;;;;17.23;5.35;;;16.00;66.90;;;;;;4940449;29;20383;-72
2023/04/21 14:33:40;;;;;;;18.52;4.90;;;16.00;67.10;;;;;;4940051;29;20052;-72
2023/04/21 14:36:06;;;;;;;14.88;4.38;;;16.00;67.40;;;;;;4938816;29;20083;-72
2023/04/21 14:38:33;;;;;;;17.77;4.88;;;16.00;67.60;;;;;;4940474;29;20102;-72
2023/04/21 14:40:58;;;;;;;19.65;5.90;;;16.00;67.70;;;;;;4940315;29;20055;-72
2023/04/21 14:43:24;;;;;;;14.23;5.43;;;16.00;68.00;;;;;;4923169;29;20043;-73
2023/04/21 14:45:50;;;;;;;19.42;5.80;;;16.00;68.50;;;;;;4922888;29;20048;-73
2023/04/21 14:48:16;;;;;;;13.00;5.22;;;16.00;69.10;;;;;;4940473;29;20058;-72
2023/04/21 14:50:41;;;;;;;13.65;5.78;;;16.00;69.60;;;;;;4939974;29;20055;-71
2023/04/21 14:53:07;;;;;;;22.88;6.65;;;16.00;70.00;;;;;;4928712;29;20146;-75
2023/04/21 14:55:33;;;;;;;15.38;7.47;;;16.00;70.20;;;;;;4921191;29;20056;-75
2023/04/21 14:57:59;;;;;;;14.35;8.05;;;16.00;69.40;;;;;;4921089;29;20088;-74
2023/04/21 15:00:26;;;;;;;17.80;9.23;;;16.00;68.80;;;;;;4927034;29;20075;-74
2023/04/21 15:02:52;;;;;;;20.77;9.23;;;16.00;68.80;;;;;;4940295;29;20058;-72
2023/04/21 15:05:18;;;;;;;26.95;10.38;;;16.00;68.70;;;;;;4940260;29;20130;-73
2023/04/21 15:07:44;;;;;;;42.22;11.50;;;16.10;69.10;;;;;;4940485;29;20051;-76
2023/04/21 15:10:10;;;;;;;28.60;10.68;;;16.10;69.50;;;;;;4939626;29;20051;-74
2023/04/21 15:12:37;;;;;;;25.17;10.93;;;16.10;70.10;;;;;;4939566;29;20118;-76
2023/04/21 15:15:04;;;;;;;23.13;10.80;;;16.10;70.60;;;;;;4923264;29;20060;-73
2023/04/21 15:17:30;;;;;;;25.77;11.82;;;16.10;71.00;;;;;;4937225;29;20048;-73
2023/04/21 15:19:56;;;;;;;37.95;11.98;;;16.20;71.10;;;;;;4935388;29;20055;-73
2023/04/21 15:22:22;;;;;;;14.77;5.38;;;16.20;71.10;;;;;;4939481;29;20035;-72
2023/04/21 15:24:48;;;;;;;16.05;6.50;;;16.20;70.60;;;;;;4939715;29;20088;-72
2023/04/21 15:27:14;;;;;;;27.23;8.18;;;16.20;70.10;;;;;;4939565;29;20095;-73
2023/04/21 15:29:39;;;;;;;12.60;6.32;;;16.20;70.40;;;;;;4939348;29;20050;-72
2023/04/21 15:32:05;;;;;;;7.68;5.05;;;16.20;69.60;;;;;;4939298;29;20175;-72
2023/04/21 15:34:31;;;;;;;12.95;6.20;;;16.20;68.80;;;;;;4939562;29;20054;-72
2023/04/21 15:36:57;;;;;;;13.55;5.68;;;16.30;68.70;;;;;;4938852;29;20344;-72
2023/04/21 15:39:22;;;;;;;9.82;4.30;;;16.30;67.90;;;;;;4940064;29;20039;-72
2023/04/21 15:41:48;;;;;;;11.93;4.03;;;16.30;66.20;;;;;;4939602;29;20055;-72
2023/04/21 15:44:14;;;;;;;17.27;5.07;;;16.30;66.30;;;;;;4939005;29;20094;-72
2023/04/21 15:46:41;;;;;;;12.30;4.03;;;16.30;66.60;;;;;;4939072;29;20063;-72
2023/04/21 15:49:06;;;;;;;9.95;4.18;;;16.30;66.70;;;;;;4939232;29;20390;-72
2023/04/21 15:51:33;;;;;;;10.98;3.92;;;16.30;67.00;;;;;;4939377;29;20099;-72
2023/04/21 15:53:59;;;;;;;10.48;3.67;;;16.30;66.90;;;;;;4918214;29;20060;-73
2023/04/21 15:56:25;;;;;;;9.40;3.78;;;16.30;66.50;;;;;;4919948;29;20431;-73
2023/04/21 15:58:50;;;;;;;10.63;4.10;;;16.30;66.50;;;;;;4920016;29;20060;-72
2023/04/21 16:01:17;;;;;;;7.68;3.70;;;16.20;66.40;;;;;;4920506;29;20103;-73
2023/04/21 16:03:42;;;;;;;17.27;4.30;;;16.20;66.50;;;;;;4906405;29;20040;-74
2023/04/21 16:06:08;;;;;;;8.35;3.70;;;16.20;66.30;;;;;;4901562;29;20060;-73
2023/04/21 16:08:34;;;;;;;11.35;3.60;;;16.20;66.50;;;;;;4919871;29;20052;-73
2023/04/21 16:11:00;;;;;;;8.82;3.58;;;16.30;66.50;;;;;;4919712;29;20044;-73
2023/04/21 16:13:26;;;;;;;7.47;3.03;;;16.20;66.50;;;;;;4919244;29;20367;-73
2023/04/21 16:15:51;;;;;;;4.53;2.20;;;16.20;66.30;;;;;;4920131;29;20098;-73
2023/04/21 16:18:17;;;;;;;7.18;3.20;;;16.20;66.50;;;;;;4919933;29;20056;-74
2023/04/21 16:20:44;;;;;;;7.50;3.38;;;16.20;66.50;;;;;;4919876;29;20068;-74
2023/04/21 16:23:14;;;;;;;6.05;3.10;;;16.20;66.80;;;;;;4919487;29;20103;-73
2023/04/21 16:25:40;;;;;;;7.38;3.58;;;16.20;66.90;;;;;;4919547;29;20059;-74
2023/04/21 16:28:07;;;;;;;6.68;3.22;;;16.20;67.00;;;;;;4919242;29;20482;-74
2023/04/21 16:30:34;;;;;;;7.47;3.53;;;16.20;67.00;;;;;;4919335;29;20056;-74
2023/04/21 16:33:00;;;;;;;7.57;3.67;;;16.20;67.30;;;;;;4920029;29;20056;-74
2023/04/21 16:35:26;;;;;;;5.85;3.58;;;16.20;67.60;;;;;;4919314;29;20083;-74
2023/04/21 16:37:52;;;;;;;9.40;4.43;;;16.20;67.80;;;;;;4918968;29;20371;-74
2023/04/21 16:40:18;;;;;;;10.30;5.10;;;16.20;67.90;;;;;;4920071;29;20055;-74
2023/04/21 16:42:44;;;;;;;10.90;4.72;;;16.20;67.90;;;;;;4919968;29;20072;-74
2023/04/21 16:45:10;;;;;;;5.03;3.47;;;16.20;67.80;;;;;;4919084;29;20051;-74
2023/04/21 16:47:37;;;;;;;5.72;3.60;;;16.20;68.00;;;;;;4902395;29;20095;-74
2023/04/21 16:50:07;;;;;;;8.40;5.00;;;16.20;68.20;;;;;;4919032;29;20126;-75
2023/04/21 16:52:33;;;;;;;14.55;5.75;;;16.20;68.30;;;;;;4918969;29;20123;-77
2023/04/21 16:54:59;;;;;;;15.05;5.45;;;16.20;68.50;;;;;;4919243;29;20048;-76
2023/04/21 16:57:27;;;;;;;21.90;5.85;;;16.20;68.60;;;;;;4918908;29;20048;-74
2023/04/21 16:59:53;;;;;;;12.52;4.85;;;16.20;68.80;;;;;;4912414;29;20107;-76
2023/04/21 17:02:19;;;;;;;16.77;5.50;;;16.30;68.90;;;;;;4915104;29;20122;-69
2023/04/21 17:04:45;;;;;;;18.13;5.55;;;16.30;69.50;;;;;;4919074;29;20048;-73
2023/04/21 17:07:11;;;;;;;8.23;4.05;;;16.30;69.40;;;;;;4918152;29;20538;-73
2023/04/21 17:09:37;;;;;;;11.00;4.30;;;16.30;69.30;;;;;;4918948;29;20477;-74
2023/04/21 17:12:03;;;;;;;15.77;4.40;;;16.30;69.30;;;;;;4918868;29;20040;-74
2023/04/21 17:14:29;;;;;;;19.25;4.53;;;16.30;69.30;;;;;;4919243;29;20435;-75
2023/04/21 17:16:55;;;;;;;12.55;4.38;;;16.30;69.30;;;;;;4919116;29;20203;-75
2023/04/21 17:19:21;;;;;;;22.17;5.50;;;16.30;69.40;;;;;;4901933;29;20095;-75
2023/04/21 17:21:59;;;;;;;16.35;5.25;;;16.30;69.50;;;;;;4918941;29;20047;-76
2023/04/21 17:24:26;;;;;;;15.80;4.90;;;16.30;69.70;;;;;;4918786;29;20074;-76
2023/04/21 17:26:52;;;;;;;16.00;4.93;;;16.30;69.70;;;;;;4918861;29;20131;-76
2023/04/21 17:29:18;;;;;;;17.35;5.05;;;16.30;69.80;;;;;;4918771;29;20119;-75
2023/04/21 17:31:44;;;;;;;13.05;4.60;;;16.30;70.00;;;;;;4919269;29;20052;-75